createdAt,value
2019-03-30T00:06:23.717Z,14.75
2019-03-30T00:16:29.763Z,15.35
2019-03-30T00:26:35.893Z,18.10
2019-03-30T00:36:41.728Z,15.75
2019-03-30T00:46:47.771Z,14.53
2019-03-30T00:56:53.822Z,13.78
2019-03-30T01:06:59.703Z,13.48
2019-03-30T01:17:06.099Z,14.35
2019-03-30T01:27:12.143Z,12.98
2019-03-30T01:37:17.979Z,12.53
2019-03-30T01:47:23.776Z,13.65
2019-03-30T01:57:29.674Z,13.00
2019-03-30T02:07:35.470Z,13.22
2019-03-30T02:17:41.749Z,14.45
2019-03-30T02:27:47.650Z,13.65
2019-03-30T02:37:53.527Z,13.95
2019-03-30T02:47:59.558Z,15.38
2019-03-30T02:58:05.674Z,14.35
2019-03-30T03:08:11.724Z,15.60
2019-03-30T03:18:17.574Z,13.72
2019-03-30T03:28:23.624Z,15.32
2019-03-30T03:38:29.434Z,14.47
2019-03-30T03:48:35.801Z,15.15
2019-03-30T03:58:43.375Z,14.30
2019-03-30T04:08:51.132Z,14.10
2019-03-30T04:18:57.550Z,14.68
2019-03-30T04:29:03.355Z,14.60
2019-03-30T04:39:09.145Z,14.63
2019-03-30T04:49:15.167Z,14.78
2019-03-30T04:59:20.947Z,13.98
2019-03-30T05:09:26.718Z,13.30
2019-03-30T05:19:32.535Z,13.35
2019-03-30T05:29:38.923Z,13.80
2019-03-30T05:39:44.719Z,13.75
2019-03-30T05:49:50.568Z,13.22
2019-03-30T05:59:56.455Z,12.68
2019-03-30T06:10:02.797Z,12.82
2019-03-30T06:20:08.757Z,12.15
2019-03-30T06:30:16.883Z,13.55
2019-03-30T06:40:22.680Z,12.30
2019-03-30T06:50:28.708Z,13.08
2019-03-30T07:00:35.554Z,12.93
2019-03-30T07:10:43.962Z,12.00
2019-03-30T07:20:49.761Z,12.25
2019-03-30T07:30:55.622Z,10.63
2019-03-30T07:41:01.419Z,10.35
2019-03-30T07:51:07.823Z,10.50
2019-03-30T08:01:13.643Z,10.72
2019-03-30T08:11:19.615Z,11.93
2019-03-30T08:21:25.502Z,11.03
2019-03-30T08:31:31.343Z,10.40
2019-03-30T08:41:37.142Z,11.30
2019-03-30T08:51:42.983Z,11.15
2019-03-30T09:01:49.048Z,10.30
2019-03-30T09:11:55.139Z,10.28
2019-03-30T09:22:00.987Z,10.68
2019-03-30T09:32:14.379Z,9.95
2019-03-30T09:42:14.707Z,10.65
2019-03-30T09:52:20.852Z,10.48
2019-03-30T10:02:26.654Z,9.95
2019-03-30T10:12:33.492Z,9.53
2019-03-30T10:22:42.164Z,7.95
2019-03-30T10:32:47.576Z,8.98
2019-03-30T10:42:53.671Z,9.40
2019-03-30T10:52:59.479Z,10.28
2019-03-30T11:03:05.582Z,10.45
2019-03-30T11:13:11.394Z,10.20
2019-03-30T11:23:17.190Z,10.55
2019-03-30T11:33:22.975Z,10.13
2019-03-30T11:43:29.254Z,10.23
2019-03-30T11:53:35.072Z,10.65
2019-03-30T12:03:40.858Z,11.08
2019-03-30T12:13:46.960Z,10.60
2019-03-30T12:23:52.774Z,9.03
2019-03-30T12:33:58.792Z,10.72
2019-03-30T12:44:04.756Z,10.72
2019-03-30T12:54:10.899Z,9.40
2019-03-30T13:04:16.780Z,9.53
2019-03-30T13:14:22.563Z,9.65
2019-03-30T13:24:28.438Z,9.85
2019-03-30T13:34:34.235Z,8.68
2019-03-30T13:44:40.506Z,9.00
2019-03-30T13:54:46.551Z,9.03
2019-03-30T14:04:52.722Z,8.73
2019-03-30T14:14:58.855Z,10.13
2019-03-30T14:25:05.746Z,7.90
2019-03-30T14:35:11.898Z,8.48
2019-03-30T14:45:18.192Z,9.00
2019-03-30T14:55:24.100Z,8.10
2019-03-30T15:05:29.942Z,9.00
2019-03-30T15:15:35.724Z,9.53
2019-03-30T15:25:41.734Z,8.23
2019-03-30T15:45:52.627Z,7.87
2019-03-30T15:55:58.424Z,8.43
2019-03-30T16:06:04.202Z,7.75
2019-03-30T16:16:09.981Z,7.62
2019-03-30T16:26:13.443Z,6.78
2019-03-30T16:36:19.215Z,7.10
2019-03-30T16:46:25.328Z,6.60
2019-03-30T16:56:31.183Z,6.62
2019-03-30T17:06:37.046Z,6.53
2019-03-30T17:16:43.319Z,9.93
2019-03-30T17:27:08.145Z,8.35
2019-03-30T17:37:14.610Z,8.18
2019-03-30T17:47:20.873Z,10.35
2019-03-30T17:57:26.678Z,12.90
2019-03-30T18:07:32.534Z,16.15
2019-03-30T18:17:38.815Z,19.32
2019-03-30T18:27:44.933Z,20.75
2019-03-30T18:37:52.282Z,21.65
2019-03-30T18:48:10.608Z,22.15
2019-03-30T18:58:16.567Z,18.37
2019-03-30T19:08:22.371Z,17.48
2019-03-30T19:18:28.463Z,17.42
2019-03-30T19:28:34.489Z,17.45
2019-03-30T19:38:40.287Z,15.80
2019-03-30T19:48:46.108Z,17.82
2019-03-30T19:58:52.270Z,17.07
2019-03-30T20:08:58.189Z,16.60
2019-03-30T20:19:12.181Z,18.95
2019-03-30T20:29:24.811Z,16.80
2019-03-30T20:39:19.739Z,16.25
2019-03-30T20:49:25.563Z,15.83
2019-03-30T20:59:39.942Z,18.30
2019-03-30T21:09:39.434Z,15.10
2019-03-30T21:19:45.467Z,14.38
2019-03-30T21:29:54.965Z,13.83
2019-03-30T21:39:59.558Z,15.15
2019-03-30T21:50:06.094Z,22.00
2019-03-30T22:00:12.743Z,17.23
2019-03-30T22:10:27.159Z,17.57
2019-03-30T22:20:33.305Z,15.50
2019-03-30T22:30:39.555Z,15.58
2019-03-30T22:40:45.362Z,16.15
2019-03-30T22:50:51.768Z,15.72
2019-03-30T23:01:02.691Z,15.32
2019-03-30T23:11:08.565Z,13.93
2019-03-30T23:21:14.376Z,13.68
2019-03-30T23:31:20.519Z,14.68
2019-03-30T23:41:26.345Z,13.25
2019-03-30T23:51:32.180Z,13.45
